createdAt,value
2018-03-26T00:02:12.969Z,6.30
2018-03-26T00:04:40.788Z,6.33
2018-03-26T00:07:08.402Z,6.33
2018-03-26T00:09:36.091Z,6.34
2018-03-26T00:12:03.816Z,6.32
2018-03-26T00:14:31.374Z,6.32
2018-03-26T00:16:58.955Z,6.34
2018-03-26T00:19:26.657Z,6.31
2018-03-26T00:21:54.220Z,6.26
2018-03-26T00:24:22.032Z,6.32
2018-03-26T00:26:49.641Z,6.37
2018-03-26T00:29:17.214Z,6.35
2018-03-26T00:31:44.771Z,6.38
2018-03-26T00:34:12.370Z,6.36
2018-03-26T00:36:39.919Z,6.31
2018-03-26T00:39:07.736Z,6.31
2018-03-26T00:41:35.299Z,6.21
2018-03-26T00:44:03.074Z,6.24
2018-03-26T00:46:30.645Z,6.20
2018-03-26T00:48:58.205Z,6.14
2018-03-26T00:51:25.774Z,6.03
2018-03-26T00:53:53.511Z,6.02
2018-03-26T00:56:21.070Z,6.07
2018-03-26T00:58:48.637Z,6.10
2018-03-26T01:01:16.194Z,6.09
2018-03-26T01:03:44.021Z,6.05
2018-03-26T01:06:11.836Z,6.11
2018-03-26T01:08:39.418Z,6.10
2018-03-26T01:11:07.003Z,6.17
2018-03-26T01:13:34.562Z,6.15
2018-03-26T01:16:02.125Z,6.20
2018-03-26T01:18:29.686Z,6.19
2018-03-26T01:20:57.259Z,6.12
2018-03-26T01:23:24.826Z,5.98
2018-03-26T01:25:52.549Z,5.88
2018-03-26T01:28:20.109Z,5.87
2018-03-26T01:30:47.672Z,5.88
2018-03-26T01:33:15.242Z,5.84
2018-03-26T01:35:42.846Z,5.84
2018-03-26T01:38:10.414Z,5.86
2018-03-26T01:40:38.187Z,5.92
2018-03-26T01:43:05.774Z,5.98
2018-03-26T01:45:33.343Z,5.99
2018-03-26T01:48:01.143Z,5.89
2018-03-26T01:50:28.745Z,5.91
2018-03-26T01:52:56.298Z,5.93
2018-03-26T01:55:23.869Z,5.94
2018-03-26T01:57:51.421Z,5.88
2018-03-26T02:00:18.990Z,5.87
2018-03-26T02:02:46.556Z,5.85
2018-03-26T02:05:14.165Z,5.86
2018-03-26T02:07:41.788Z,5.85
2018-03-26T02:10:09.601Z,5.88
2018-03-26T02:12:37.174Z,5.94
2018-03-26T02:15:04.789Z,5.96
2018-03-26T02:17:32.450Z,5.91
2018-03-26T02:20:00.010Z,5.92
2018-03-26T02:22:27.568Z,5.92
2018-03-26T02:24:55.186Z,5.85
2018-03-26T02:27:22.923Z,5.85
2018-03-26T02:29:50.503Z,5.81
2018-03-26T02:32:18.066Z,5.74
2018-03-26T02:34:45.670Z,5.77
2018-03-26T02:37:13.497Z,5.75
2018-03-26T02:39:41.105Z,5.75
2018-03-26T02:42:08.937Z,5.67
2018-03-26T02:44:36.494Z,5.61
2018-03-26T02:47:04.268Z,5.50
2018-03-26T02:49:31.825Z,5.49
2018-03-26T02:51:59.386Z,5.49
2018-03-26T02:54:26.970Z,5.56
2018-03-26T02:56:54.522Z,5.60
2018-03-26T02:59:22.258Z,5.59
2018-03-26T03:01:49.823Z,5.59
2018-03-26T03:04:17.593Z,5.50
2018-03-26T03:06:45.203Z,5.48
2018-03-26T03:09:12.929Z,5.39
2018-03-26T03:11:40.559Z,5.41
2018-03-26T03:14:08.178Z,5.46
2018-03-26T03:16:35.983Z,5.47
2018-03-26T03:19:03.803Z,5.55
2018-03-26T03:21:31.410Z,5.57
2018-03-26T03:23:58.990Z,5.56
2018-03-26T03:26:26.588Z,5.51
2018-03-26T03:28:54.185Z,5.50
2018-03-26T03:31:21.793Z,5.49
2018-03-26T03:33:49.380Z,5.52
2018-03-26T03:36:16.958Z,5.50
2018-03-26T03:38:44.740Z,5.43
2018-03-26T03:41:12.299Z,5.42
2018-03-26T03:43:40.081Z,5.35
2018-03-26T03:46:07.810Z,5.26
2018-03-26T03:48:35.620Z,5.22
2018-03-26T03:51:03.436Z,5.36
2018-03-26T03:53:30.993Z,5.37
2018-03-26T03:55:58.657Z,5.44
2018-03-26T03:58:26.227Z,5.45
2018-03-26T04:00:54.007Z,5.28
2018-03-26T04:03:21.691Z,5.30
2018-03-26T04:05:49.408Z,5.27
2018-03-26T04:08:17.049Z,5.27
2018-03-26T04:10:44.626Z,5.29
2018-03-26T04:13:12.195Z,5.25
2018-03-26T04:15:39.753Z,5.28
2018-03-26T04:18:07.337Z,5.32
2018-03-26T04:20:34.937Z,5.31
2018-03-26T04:23:02.496Z,5.30
2018-03-26T04:25:30.076Z,5.30
2018-03-26T04:27:57.634Z,5.29
2018-03-26T04:30:25.189Z,5.37
2018-03-26T04:32:52.754Z,5.42
2018-03-26T04:35:20.313Z,5.45
2018-03-26T04:37:47.891Z,5.41
2018-03-26T04:40:15.446Z,5.50
2018-03-26T04:42:43.001Z,5.45
2018-03-26T04:45:10.577Z,5.39
2018-03-26T04:47:38.141Z,5.41
2018-03-26T04:50:05.714Z,5.38
2018-03-26T04:52:33.274Z,5.42
2018-03-26T04:55:00.840Z,5.44
2018-03-26T04:57:28.575Z,5.50
2018-03-26T04:59:56.225Z,5.49
2018-03-26T05:02:23.802Z,5.56
2018-03-26T05:04:51.378Z,5.58
2018-03-26T05:07:18.933Z,5.67
2018-03-26T05:09:46.705Z,5.76
2018-03-26T05:12:14.303Z,5.85
2018-03-26T05:14:41.981Z,5.91
2018-03-26T05:17:09.533Z,5.98
2018-03-26T05:19:37.090Z,5.99
2018-03-26T05:22:04.674Z,6.03
2018-03-26T05:24:32.411Z,6.12
2018-03-26T05:26:59.998Z,6.17
2018-03-26T05:29:27.562Z,6.23
2018-03-26T05:31:55.122Z,6.27
2018-03-26T05:34:22.843Z,6.33
2018-03-26T05:36:50.397Z,6.38
2018-03-26T05:39:18.219Z,6.43
2018-03-26T05:41:46.038Z,6.45
2018-03-26T05:44:13.856Z,6.44
2018-03-26T05:46:41.424Z,6.35
2018-03-26T05:49:09.003Z,6.24
2018-03-26T05:51:36.565Z,6.18
2018-03-26T05:54:04.326Z,6.24
2018-03-26T05:56:31.900Z,6.30
2018-03-26T05:58:59.479Z,6.33
2018-03-26T06:01:27.046Z,6.48
2018-03-26T06:03:54.659Z,6.51
2018-03-26T06:06:22.215Z,6.57
2018-03-26T06:08:49.934Z,6.60
2018-03-26T06:11:17.753Z,6.59
2018-03-26T06:13:45.571Z,6.43
2018-03-26T06:16:13.150Z,6.33
2018-03-26T06:18:40.750Z,6.36
2018-03-26T06:21:08.525Z,6.41
2018-03-26T06:23:36.345Z,6.39
2018-03-26T06:26:03.980Z,6.43
2018-03-26T06:28:31.671Z,6.42
2018-03-26T06:30:59.283Z,6.46
2018-03-26T06:33:26.896Z,6.50
2018-03-26T06:35:54.498Z,6.59
2018-03-26T06:38:27.971Z,6.62
2018-03-26T06:40:55.609Z,6.61
2018-03-26T06:43:23.209Z,6.57
2018-03-26T06:45:50.769Z,6.48
2018-03-26T06:48:18.510Z,6.29
2018-03-26T06:50:46.138Z,6.23
2018-03-26T06:53:13.695Z,6.14
2018-03-26T06:55:41.264Z,6.14
2018-03-26T06:58:08.840Z,6.22
2018-03-26T07:00:36.615Z,6.19
2018-03-26T07:03:04.199Z,6.09
2018-03-26T07:05:31.765Z,6.05
2018-03-26T07:07:59.467Z,6.12
2018-03-26T07:10:27.042Z,6.22
2018-03-26T07:12:54.598Z,6.29
2018-03-26T07:15:22.165Z,6.35
2018-03-26T07:17:49.927Z,6.31
2018-03-26T07:20:17.519Z,6.44
2018-03-26T07:22:45.107Z,6.53
2018-03-26T07:25:12.911Z,6.60
2018-03-26T07:27:40.470Z,6.54
2018-03-26T07:30:08.033Z,6.54
2018-03-26T07:32:35.646Z,6.36
2018-03-26T07:35:03.482Z,6.42
2018-03-26T07:37:31.059Z,6.35
2018-03-26T07:39:58.820Z,6.24
2018-03-26T07:42:26.430Z,6.08
2018-03-26T07:44:54.028Z,5.95
2018-03-26T07:47:21.607Z,5.81
2018-03-26T07:49:49.221Z,5.71
2018-03-26T07:52:16.786Z,5.73
2018-03-26T07:54:44.524Z,5.79
2018-03-26T07:57:12.082Z,5.85
2018-03-26T07:59:39.694Z,5.98
2018-03-26T08:02:07.480Z,6.18
2018-03-26T08:04:35.034Z,6.33
2018-03-26T08:07:02.606Z,6.38
2018-03-26T08:09:30.217Z,6.41
2018-03-26T08:11:57.851Z,6.35
2018-03-26T08:14:25.567Z,6.38
2018-03-26T08:16:53.200Z,6.34
2018-03-26T08:19:20.801Z,6.43
2018-03-26T08:21:48.374Z,6.53
2018-03-26T08:24:15.950Z,6.60
2018-03-26T08:26:43.759Z,6.50
2018-03-26T08:29:11.575Z,6.44
2018-03-26T08:31:39.149Z,6.23
2018-03-26T08:34:06.808Z,6.15
2018-03-26T08:36:34.383Z,6.05
2018-03-26T08:39:02.032Z,5.96
2018-03-26T08:41:29.602Z,5.94
2018-03-26T08:43:57.194Z,5.88
2018-03-26T08:46:24.797Z,5.81
2018-03-26T08:48:52.369Z,5.83
2018-03-26T08:51:19.990Z,5.87
2018-03-26T08:53:47.755Z,6.01
2018-03-26T08:56:15.581Z,6.02
2018-03-26T08:58:43.158Z,6.11
2018-03-26T09:01:10.733Z,6.22
2018-03-26T09:03:38.374Z,6.26
2018-03-26T09:06:06.144Z,6.47
2018-03-26T09:08:33.868Z,6.66
2018-03-26T09:11:01.427Z,6.84
2018-03-26T09:13:28.982Z,6.79
2018-03-26T09:15:56.586Z,6.85
2018-03-26T09:18:24.154Z,6.84
2018-03-26T09:23:18.935Z,7.02
2018-03-26T09:25:46.542Z,7.13
2018-03-26T09:28:14.106Z,7.27
2018-03-26T09:30:41.924Z,7.32
2018-03-26T09:33:09.495Z,7.55
2018-03-26T09:35:37.150Z,7.81
2018-03-26T09:38:04.790Z,7.90
2018-03-26T09:40:32.544Z,7.92
2018-03-26T09:43:00.190Z,7.90
2018-03-26T09:45:27.929Z,7.80
2018-03-26T09:47:55.753Z,7.79
2018-03-26T09:50:23.458Z,7.64
2018-03-26T09:52:51.031Z,7.55
2018-03-26T09:55:18.717Z,7.55
2018-03-26T09:57:46.288Z,7.56
2018-03-26T10:00:14.129Z,7.50
2018-03-26T10:02:41.856Z,7.47
2018-03-26T10:05:09.442Z,7.45
2018-03-26T10:07:37.151Z,7.50
2018-03-26T10:10:04.758Z,7.52
2018-03-26T10:12:32.513Z,7.53
2018-03-26T10:15:00.066Z,7.56
2018-03-26T10:17:27.758Z,7.60
2018-03-26T10:19:55.367Z,7.61
2018-03-26T10:22:22.939Z,7.49
2018-03-26T10:24:50.718Z,7.26
2018-03-26T10:27:18.287Z,7.01
2018-03-26T10:29:45.853Z,6.92
2018-03-26T10:32:13.414Z,6.93
2018-03-26T10:34:41.030Z,6.79
2018-03-26T10:37:08.601Z,6.60
2018-03-26T10:39:36.326Z,6.63
2018-03-26T10:42:04.105Z,6.63
2018-03-26T10:44:31.669Z,6.63
2018-03-26T10:46:59.256Z,6.73
2018-03-26T10:49:26.954Z,6.88
2018-03-26T10:51:54.606Z,6.94
2018-03-26T10:54:22.170Z,6.99
2018-03-26T10:56:49.741Z,7.15
2018-03-26T10:59:17.318Z,7.32
2018-03-26T11:01:44.875Z,7.17
2018-03-26T11:04:12.696Z,7.04
2018-03-26T11:06:40.294Z,7.00
2018-03-26T11:09:08.032Z,7.02
2018-03-26T11:11:35.628Z,6.88
2018-03-26T11:14:03.476Z,6.78
2018-03-26T11:16:31.296Z,6.50
2018-03-26T11:18:58.882Z,6.46
2018-03-26T11:21:26.732Z,6.46
2018-03-26T11:23:54.549Z,6.47
2018-03-26T11:26:22.239Z,6.41
2018-03-26T11:28:49.825Z,6.44
2018-03-26T11:31:17.414Z,6.38
2018-03-26T11:33:45.015Z,6.49
2018-03-26T11:36:12.647Z,6.56
2018-03-26T11:38:40.529Z,6.64
2018-03-26T11:41:08.172Z,6.64
2018-03-26T11:43:35.961Z,6.70
2018-03-26T11:46:03.703Z,6.57
2018-03-26T11:48:31.297Z,6.48
2018-03-26T11:50:58.954Z,6.40
2018-03-26T11:53:26.560Z,6.40
2018-03-26T11:55:54.150Z,6.42
2018-03-26T11:58:21.746Z,6.45
2018-03-26T12:00:49.350Z,6.48
2018-03-26T12:03:17.118Z,6.52
2018-03-26T12:05:44.719Z,6.49
2018-03-26T12:08:12.366Z,6.59
2018-03-26T12:10:40.191Z,6.66
2018-03-26T12:13:07.820Z,6.71
2018-03-26T12:15:35.514Z,6.77
2018-03-26T12:18:03.102Z,6.67
2018-03-26T12:20:42.529Z,6.60
2018-03-26T12:23:21.855Z,6.57
2018-03-26T12:25:49.519Z,6.50
2018-03-26T12:28:29.102Z,6.47
2018-03-26T12:30:56.754Z,6.51
2018-03-26T12:33:24.342Z,6.52
2018-03-26T12:35:55.789Z,6.58
2018-03-26T12:38:23.383Z,6.56
2018-03-26T12:40:58.918Z,6.58
2018-03-26T12:43:26.509Z,6.73
2018-03-26T12:46:06.049Z,6.85
2018-03-26T12:48:33.649Z,6.94
2018-03-26T12:51:13.037Z,6.86
2018-03-26T12:53:40.816Z,6.88
2018-03-26T12:56:08.442Z,6.80
2018-03-26T12:58:50.823Z,6.78
2018-03-26T13:01:30.292Z,6.72
2018-03-26T13:03:58.110Z,6.73
2018-03-26T13:06:25.929Z,6.83
2018-03-26T13:08:53.582Z,6.85
2018-03-26T13:11:21.176Z,6.86
2018-03-26T13:13:48.811Z,6.82
2018-03-26T13:16:16.408Z,6.85
2018-03-26T13:18:44.014Z,6.94
2018-03-26T13:21:11.680Z,7.06
2018-03-26T13:23:39.257Z,7.18
2018-03-26T13:26:06.957Z,7.10
2018-03-26T13:28:34.566Z,6.93
2018-03-26T13:31:02.150Z,6.90
2018-03-26T13:33:29.839Z,6.94
2018-03-26T13:35:57.481Z,6.93
2018-03-26T13:38:25.072Z,6.99
2018-03-26T13:40:52.879Z,6.91
2018-03-26T13:43:20.697Z,6.88
2018-03-26T13:45:48.316Z,6.93
2018-03-26T13:48:15.909Z,6.84
2018-03-26T13:50:43.538Z,6.77
2018-03-26T13:53:11.376Z,6.70
2018-03-26T13:55:39.189Z,6.61
2018-03-26T13:58:07.011Z,6.50
2018-03-26T14:00:34.661Z,6.45
2018-03-26T14:03:02.274Z,6.42
2018-03-26T14:05:29.898Z,6.32
2018-03-26T14:07:57.649Z,6.10
2018-03-26T14:10:36.998Z,6.11
2018-03-26T14:16:20.127Z,5.91
2018-03-26T14:18:47.960Z,5.92
2018-03-26T14:21:15.658Z,5.89
2018-03-26T14:23:43.419Z,5.89
2018-03-26T14:26:11.076Z,5.94
2018-03-26T14:28:38.833Z,6.03
2018-03-26T14:31:06.655Z,6.01
2018-03-26T14:33:34.474Z,6.04
2018-03-26T14:36:02.293Z,6.11
2018-03-26T14:38:30.107Z,6.19
2018-03-26T14:40:57.816Z,6.29
2018-03-26T14:43:25.611Z,6.24
2018-03-26T14:45:53.210Z,6.15
2018-03-26T14:48:20.867Z,5.97
2018-03-26T14:50:48.465Z,5.86
2018-03-26T14:53:16.062Z,5.86
2018-03-26T14:55:43.667Z,5.92
2018-03-26T14:58:11.259Z,5.86
2018-03-26T15:00:39.069Z,5.91
2018-03-26T15:03:06.866Z,5.91
2018-03-26T15:05:34.517Z,5.96
2018-03-26T15:08:02.111Z,5.90
2018-03-26T15:10:29.697Z,5.83
2018-03-26T15:12:57.294Z,5.70
2018-03-26T15:15:24.887Z,5.68
2018-03-26T15:17:52.488Z,5.77
2018-03-26T15:20:20.086Z,5.75
2018-03-26T15:22:47.931Z,5.64
2018-03-26T15:25:15.520Z,5.57
2018-03-26T15:27:43.110Z,5.58
2018-03-26T15:30:10.811Z,5.55
2018-03-26T15:32:38.607Z,5.52
2018-03-26T15:35:06.422Z,5.53
2018-03-26T15:37:34.242Z,5.49
2018-03-26T15:40:01.948Z,5.43
2018-03-26T15:42:29.777Z,5.37
2018-03-26T15:44:57.595Z,5.28
2018-03-26T15:47:25.199Z,5.23
2018-03-26T15:49:53.032Z,5.20
2018-03-26T15:52:20.852Z,5.12
2018-03-26T15:54:48.462Z,5.09
2018-03-26T15:57:16.106Z,5.10
2018-03-26T15:59:43.864Z,5.08
2018-03-26T16:02:10.889Z,5.14
2018-03-26T16:04:38.534Z,5.13
2018-03-26T16:07:06.133Z,5.08
2018-03-26T16:09:33.748Z,4.99
2018-03-26T16:12:01.346Z,4.96
2018-03-26T16:14:29.330Z,4.89
2018-03-26T16:16:57.133Z,4.84
2018-03-26T16:19:24.919Z,4.83
2018-03-26T16:21:52.765Z,4.83
2018-03-26T16:24:20.363Z,4.89
2018-03-26T16:26:47.981Z,4.84
2018-03-26T16:29:15.611Z,4.81
2018-03-26T16:31:43.259Z,4.79
2018-03-26T16:34:10.858Z,4.74
2018-03-26T16:36:38.674Z,4.70
2018-03-26T16:39:06.558Z,4.71
2018-03-26T16:41:45.862Z,4.63
2018-03-26T16:44:13.490Z,4.66
2018-03-26T16:46:41.101Z,4.69
2018-03-26T16:49:09.005Z,4.58
2018-03-26T16:51:36.742Z,4.55
2018-03-26T16:54:04.365Z,4.58
2018-03-26T16:56:32.161Z,4.49
2018-03-26T16:58:59.754Z,4.52
2018-03-26T17:01:27.359Z,4.54
2018-03-26T17:03:54.954Z,4.51
2018-03-26T17:06:22.606Z,4.49
2018-03-26T17:08:50.195Z,4.58
2018-03-26T17:11:17.784Z,4.60
2018-03-26T17:13:45.377Z,4.62
2018-03-26T17:16:13.203Z,4.60
2018-03-26T17:18:41.022Z,4.60
2018-03-26T17:21:08.725Z,4.54
2018-03-26T17:23:36.475Z,4.63
2018-03-26T17:26:04.132Z,4.64
2018-03-26T17:28:31.896Z,4.72
2018-03-26T17:30:59.503Z,4.72
2018-03-26T17:33:27.096Z,4.69
2018-03-26T17:35:54.949Z,4.72
2018-03-26T17:38:22.538Z,4.71
2018-03-26T17:40:50.197Z,4.67
2018-03-26T17:43:17.971Z,4.68
2018-03-26T17:45:45.720Z,4.69
2018-03-26T17:48:13.502Z,4.68
2018-03-26T17:50:41.258Z,4.70
2018-03-26T17:53:09.077Z,4.69
2018-03-26T17:55:36.895Z,4.66
2018-03-26T17:58:04.562Z,4.75
2018-03-26T18:00:32.174Z,4.79
2018-03-26T18:02:59.776Z,4.77
2018-03-26T18:05:27.382Z,4.74
2018-03-26T18:07:55.158Z,4.83
2018-03-26T18:10:23.015Z,4.83
2018-03-26T18:12:50.703Z,4.85
2018-03-26T18:15:18.388Z,4.80
2018-03-26T18:17:45.992Z,4.81
2018-03-26T18:20:14.125Z,4.76
2018-03-26T18:22:41.995Z,4.79
2018-03-26T18:25:09.581Z,4.72
2018-03-26T18:27:37.191Z,4.72
2018-03-26T18:30:04.864Z,4.71
2018-03-26T18:32:32.767Z,4.64
2018-03-26T18:35:00.588Z,4.69
2018-03-26T18:37:28.188Z,4.73
2018-03-26T18:39:55.783Z,4.73
2018-03-26T18:42:23.378Z,4.58
2018-03-26T18:44:51.158Z,4.57
2018-03-26T18:47:18.978Z,4.54
2018-03-26T18:49:46.675Z,4.49
2018-03-26T18:52:14.258Z,4.44
2018-03-26T18:54:41.993Z,4.40
2018-03-26T18:57:09.607Z,4.36
2018-03-26T18:59:37.215Z,4.41
2018-03-26T19:02:04.826Z,4.39
2018-03-26T19:04:32.420Z,4.44
2018-03-26T19:07:00.198Z,4.51
2018-03-26T19:09:27.774Z,4.58
2018-03-26T19:11:56.271Z,4.55
2018-03-26T19:14:24.047Z,4.56
2018-03-26T19:16:51.673Z,4.61
2018-03-26T19:19:19.513Z,4.61
2018-03-26T19:21:47.114Z,4.62
2018-03-26T19:24:14.770Z,4.58
2018-03-26T19:26:42.568Z,4.53
2018-03-26T19:29:10.170Z,4.50
2018-03-26T19:31:37.782Z,4.38
2018-03-26T19:34:05.374Z,4.33
2018-03-26T19:36:32.970Z,4.21
2018-03-26T19:39:00.574Z,4.19
2018-03-26T19:41:28.288Z,4.20
2018-03-26T19:43:55.879Z,4.28
2018-03-26T19:46:23.711Z,4.28
2018-03-26T19:48:51.537Z,4.33
2018-03-26T19:51:19.127Z,4.35
2018-03-26T19:53:46.783Z,4.32
2018-03-26T19:56:14.586Z,4.35
2018-03-26T19:58:42.251Z,4.36
2018-03-26T20:01:09.911Z,4.41
2018-03-26T20:03:37.744Z,4.36
2018-03-26T20:06:05.540Z,4.37
2018-03-26T20:08:33.131Z,4.38
2018-03-26T20:11:00.734Z,4.43
2018-03-26T20:13:28.330Z,4.43
2018-03-26T20:15:55.928Z,4.44
2018-03-26T20:18:23.522Z,4.47
2018-03-26T20:20:51.535Z,4.43
2018-03-26T20:23:19.232Z,4.38
2018-03-26T20:25:47.002Z,4.40
2018-03-26T20:28:14.669Z,4.39
2018-03-26T20:30:42.274Z,4.39
2018-03-26T20:33:09.865Z,4.44
2018-03-26T20:35:37.486Z,4.50
2018-03-26T20:38:05.091Z,4.54
2018-03-26T20:40:32.753Z,4.50
2018-03-26T20:43:00.349Z,4.50
2018-03-26T20:45:27.937Z,4.50
2018-03-26T20:47:55.532Z,4.50
2018-03-26T20:50:23.143Z,4.52
2018-03-26T20:52:50.787Z,4.43
2018-03-26T20:55:18.616Z,4.33
2018-03-26T20:57:46.273Z,4.38
2018-03-26T21:00:14.154Z,4.38
2018-03-26T21:02:41.741Z,4.43
2018-03-26T21:05:09.589Z,4.49
2018-03-26T21:07:37.182Z,4.44
2018-03-26T21:10:04.891Z,4.46
2018-03-26T21:12:32.643Z,4.52
2018-03-26T21:15:00.252Z,4.53
2018-03-26T21:17:27.885Z,4.45
2018-03-26T21:19:55.487Z,4.46
2018-03-26T21:22:23.166Z,4.36
2018-03-26T21:24:50.749Z,4.30
2018-03-26T21:27:18.349Z,4.32
2018-03-26T21:29:46.050Z,4.36
2018-03-26T21:32:13.672Z,4.40
2018-03-26T21:34:41.342Z,4.43
2018-03-26T21:37:08.944Z,4.43
2018-03-26T21:39:36.546Z,4.40
2018-03-26T21:42:04.397Z,4.38
2018-03-26T21:44:32.010Z,4.43
2018-03-26T21:46:59.796Z,4.47
2018-03-26T21:49:27.614Z,4.47
2018-03-26T21:51:55.266Z,4.44
2018-03-26T21:54:22.866Z,4.44
2018-03-26T21:56:50.458Z,4.44
2018-03-26T21:59:18.285Z,4.42
2018-03-26T22:01:46.105Z,4.40
2018-03-26T22:04:13.923Z,4.35
2018-03-26T22:06:41.555Z,4.34
2018-03-26T22:09:09.214Z,4.33
2018-03-26T22:11:37.042Z,4.29
2018-03-26T22:14:04.673Z,4.26
2018-03-26T22:16:32.269Z,4.30
2018-03-26T22:18:59.872Z,4.30
2018-03-26T22:21:27.469Z,4.27
2018-03-26T22:23:55.247Z,4.16
2018-03-26T22:26:22.939Z,4.11
2018-03-26T22:28:50.548Z,4.10
2018-03-26T22:31:18.297Z,4.08
2018-03-26T22:33:46.139Z,4.08
2018-03-26T22:36:13.844Z,4.06
2018-03-26T22:38:41.677Z,4.12
2018-03-26T22:41:09.266Z,4.13
2018-03-26T22:43:36.906Z,4.21
2018-03-26T22:46:04.696Z,4.29
2018-03-26T22:48:32.453Z,4.34
2018-03-26T22:51:00.226Z,4.32
2018-03-26T22:53:27.805Z,4.34
2018-03-26T22:55:55.501Z,4.34
2018-03-26T22:58:23.090Z,4.36
2018-03-26T23:00:50.753Z,4.38
2018-03-26T23:03:18.342Z,4.39
2018-03-26T23:05:45.933Z,4.41
2018-03-26T23:08:13.549Z,4.35
2018-03-26T23:10:41.134Z,4.32
2018-03-26T23:13:08.746Z,4.28
2018-03-26T23:15:36.326Z,4.13
2018-03-26T23:18:04.017Z,4.14
2018-03-26T23:20:31.608Z,4.13
2018-03-26T23:22:59.285Z,4.07
2018-03-26T23:25:27.118Z,4.11
2018-03-26T23:27:54.702Z,4.10
2018-03-26T23:30:22.306Z,4.09
2018-03-26T23:32:50.051Z,4.13
2018-03-26T23:35:17.693Z,4.19
2018-03-26T23:37:45.281Z,4.24
2018-03-26T23:40:12.866Z,4.19
2018-03-26T23:42:40.529Z,4.30
2018-03-26T23:45:08.102Z,4.31
2018-03-26T23:47:35.878Z,4.32
2018-03-26T23:50:03.664Z,4.31
2018-03-26T23:52:31.330Z,4.35
2018-03-26T23:54:58.910Z,4.34
2018-03-26T23:57:26.497Z,4.27
2018-03-26T23:59:54.230Z,4.29
